Time;durP1;ratioP1;P1;durP2;ratioP2;P2;SDS_P1;SDS_P2;PMS_P1;PMS_P2;Temp;Humidity;BMP_temperature;BMP_pressure;BME280_temperature;BME280_humidity;BME280_pressure;Samples;Min_cycle;Max_cycle;Signal;HPM_P1;HPM_P2
2023/08/19 00:01:05;;;;;;;7.65;7.05;;;23.20;99.90;;;;;;5000547;28;20045;-83
2023/08/19 00:03:33;;;;;;;9.27;8.57;;;23.20;99.90;;;;;;5002728;28;20044;-84
2023/08/19 00:06:04;;;;;;;6.97;6.40;;;23.20;99.90;;;;;;5022928;28;20029;-91
2023/08/19 00:08:30;;;;;;;6.68;6.18;;;23.10;99.90;;;;;;5002094;28;20041;-91
2023/08/19 00:10:56;;;;;;;6.85;6.35;;;23.10;99.90;;;;;;5020336;28;20075;-89
2023/08/19 00:13:23;;;;;;;7.82;7.15;;;23.10;99.90;;;;;;5005700;28;20052;-88
2023/08/19 00:15:49;;;;;;;6.70;6.20;;;23.10;99.90;;;;;;4997808;28;20448;-80
2023/08/19 00:18:16;;;;;;;6.95;6.35;;;23.00;99.90;;;;;;5015324;28;20068;-83
2023/08/19 00:20:44;;;;;;;6.50;6.00;;;23.00;99.90;;;;;;5015173;28;20427;-86
2023/08/19 00:23:11;;;;;;;10.85;9.85;;;23.00;99.90;;;;;;5015116;28;20609;-80
2023/08/19 00:25:37;;;;;;;8.80;8.10;;;23.00;99.90;;;;;;5006301;28;20523;-81
2023/08/19 00:28:04;;;;;;;9.18;8.38;;;22.90;99.90;;;;;;5021499;28;20044;-84
2023/08/19 00:30:30;;;;;;;8.57;7.93;;;22.90;99.90;;;;;;5015647;28;20041;-87
2023/08/19 00:32:57;;;;;;;8.82;8.13;;;22.90;99.90;;;;;;4998877;28;21221;-76
2023/08/19 00:35:25;;;;;;;8.45;7.78;;;22.90;99.90;;;;;;5013329;28;20037;-78
2023/08/19 00:37:52;;;;;;;10.50;9.63;;;22.90;99.90;;;;;;4997637;28;20612;-87
2023/08/19 00:40:18;;;;;;;11.18;10.18;;;22.80;99.90;;;;;;4994878;28;20045;-80
2023/08/19 00:42:46;;;;;;;9.23;8.50;;;22.80;99.90;;;;;;5013253;28;20037;-79
2023/08/19 00:45:13;;;;;;;9.18;7.78;;;22.80;99.90;;;;;;4998151;28;20041;-84
2023/08/19 00:47:40;;;;;;;10.93;10.00;;;22.80;99.90;;;;;;5018044;28;20487;-77
2023/08/19 00:50:10;;;;;;;8.30;7.60;;;22.80;99.90;;;;;;5020650;28;20052;-85
2023/08/19 00:52:38;;;;;;;8.65;7.85;;;22.80;99.90;;;;;;5019492;28;20040;-80
2023/08/19 00:55:05;;;;;;;8.15;7.45;;;22.70;99.90;;;;;;4993472;28;20043;-81
2023/08/19 00:57:35;;;;;;;8.07;7.38;;;22.80;99.90;;;;;;4997046;28;20596;-81
2023/08/19 01:00:03;;;;;;;7.97;7.28;;;22.70;99.90;;;;;;5011893;28;20029;-88
2023/08/19 01:02:32;;;;;;;8.60;7.90;;;22.70;99.90;;;;;;4994496;28;20513;-88
2023/08/19 01:04:59;;;;;;;10.73;9.82;;;22.70;99.90;;;;;;4993957;28;20036;-81
2023/08/19 01:07:37;;;;;;;9.30;8.43;;;22.60;99.90;;;;;;4993038;28;20852;-81
2023/08/19 01:10:27;;;;;;;10.65;9.65;;;22.60;99.90;;;;;;4994704;28;20044;-82
2023/08/19 01:13:00;;;;;;;8.80;8.00;;;22.60;99.90;;;;;;4994552;28;20047;-75
2023/08/19 01:15:29;;;;;;;8.23;7.57;;;22.60;99.90;;;;;;4999458;28;20036;-86
2023/08/19 01:17:58;;;;;;;9.85;8.95;;;22.50;99.90;;;;;;5019862;28;20033;-78
2023/08/19 01:20:31;;;;;;;9.77;8.98;;;22.50;99.90;;;;;;5021526;28;20033;-83
2023/08/19 01:23:05;;;;;;;9.13;8.30;;;22.50;99.90;;;;;;4999022;28;20492;-85
2023/08/19 01:25:32;;;;;;;10.93;10.00;;;22.50;99.90;;;;;;5013972;28;20029;-78
2023/08/19 01:28:03;;;;;;;10.98;10.07;;;22.40;99.90;;;;;;5007809;28;20371;-80
2023/08/19 01:30:31;;;;;;;11.82;10.82;;;22.40;99.90;;;;;;5016790;28;20051;-82
2023/08/19 01:32:57;;;;;;;11.60;10.60;;;22.40;99.90;;;;;;4996231;28;20431;-85
2023/08/19 01:35:25;;;;;;;12.50;11.48;;;22.40;99.90;;;;;;4993350;28;20033;-82
2023/08/19 01:37:51;;;;;;;10.75;9.85;;;22.40;99.90;;;;;;4990756;28;20037;-79
2023/08/19 01:40:20;;;;;;;12.93;10.23;;;22.30;99.90;;;;;;5010513;28;20670;-87
2023/08/19 01:42:47;;;;;;;10.80;9.90;;;22.30;99.90;;;;;;5010323;28;20632;-84
2023/08/19 01:45:16;;;;;;;14.85;13.55;;;22.40;99.90;;;;;;5011581;28;20033;-87
2023/08/19 01:47:43;;;;;;;12.60;11.48;;;22.40;99.90;;;;;;5013481;28;20500;-82
2023/08/19 01:50:10;;;;;;;10.18;9.38;;;22.40;99.90;;;;;;4986765;28;20036;-76
2023/08/19 01:52:37;;;;;;;10.48;9.57;;;22.40;99.90;;;;;;5014840;28;20040;-85
2023/08/19 01:55:05;;;;;;;10.88;9.90;;;22.40;99.90;;;;;;5013569;28;20455;-83
2023/08/19 01:57:34;;;;;;;9.80;9.00;;;22.40;99.90;;;;;;4980584;28;20499;-80
2023/08/19 02:00:00;;;;;;;9.50;8.68;;;22.30;99.90;;;;;;4987251;28;20044;-74
2023/08/19 02:02:26;;;;;;;9.40;8.57;;;22.30;99.90;;;;;;5023564;28;20048;-82
2023/08/19 02:04:53;;;;;;;9.15;8.45;;;22.30;99.90;;;;;;4993118;28;20047;-78
2023/08/19 02:07:19;;;;;;;9.52;8.68;;;22.30;99.90;;;;;;5010852;28;20049;-77
2023/08/19 02:09:46;;;;;;;9.45;8.55;;;22.30;99.90;;;;;;5015713;28;20385;-74
2023/08/19 02:12:12;;;;;;;10.38;9.50;;;22.20;99.90;;;;;;4998646;28;20420;-79
2023/08/19 02:14:39;;;;;;;9.38;8.48;;;22.20;99.90;;;;;;5004765;28;20358;-79
2023/08/19 02:17:05;;;;;;;7.57;6.97;;;22.20;99.90;;;;;;5020132;28;20048;-80
2023/08/19 02:19:32;;;;;;;8.43;7.72;;;22.20;99.90;;;;;;5015687;28;20033;-84
2023/08/19 02:21:58;;;;;;;8.05;7.25;;;22.20;99.90;;;;;;5015342;28;20033;-76
2023/08/19 02:24:26;;;;;;;8.10;7.30;;;22.20;99.90;;;;;;5015607;28;20100;-80
2023/08/19 02:26:52;;;;;;;10.35;9.45;;;22.30;99.90;;;;;;4985814;28;20036;-75
2023/08/19 02:29:19;;;;;;;8.45;7.75;;;22.30;99.90;;;;;;5016004;28;20029;-78
2023/08/19 02:31:46;;;;;;;8.43;7.60;;;22.30;99.90;;;;;;5011851;28;20041;-77
2023/08/19 02:34:13;;;;;;;8.10;7.38;;;22.30;99.90;;;;;;5004209;28;20044;-79
2023/08/19 02:36:40;;;;;;;8.70;7.90;;;22.30;99.90;;;;;;5024350;28;20041;-76
2023/08/19 02:39:08;;;;;;;9.00;8.20;;;22.40;99.90;;;;;;5024996;28;21113;-80
2023/08/19 02:41:34;;;;;;;8.68;7.88;;;22.40;99.90;;;;;;5000892;28;20660;-82
2023/08/19 02:44:01;;;;;;;8.32;7.63;;;22.40;99.90;;;;;;4998007;28;20045;-82
2023/08/19 02:46:29;;;;;;;8.40;7.70;;;22.40;99.90;;;;;;4996394;28;20021;-78
2023/08/19 02:48:55;;;;;;;10.20;9.20;;;22.50;99.90;;;;;;5013987;28;20041;-77
2023/08/19 02:51:22;;;;;;;9.13;8.32;;;22.50;99.90;;;;;;4985012;28;20056;-80
2023/08/19 02:53:48;;;;;;;9.68;8.68;;;22.50;99.90;;;;;;4995324;28;20038;-76
2023/08/19 02:56:14;;;;;;;9.02;8.13;;;22.50;99.90;;;;;;4987296;28;20036;-78
2023/08/19 02:58:41;;;;;;;7.85;7.20;;;22.50;99.90;;;;;;5004948;28;20392;-79
2023/08/19 03:01:13;;;;;;;9.65;8.65;;;22.50;99.90;;;;;;5001364;28;20032;-81
2023/08/19 03:03:40;;;;;;;9.68;8.85;;;22.50;99.90;;;;;;4981683;28;20037;-78
2023/08/19 03:06:06;;;;;;;7.72;7.13;;;22.50;99.90;;;;;;4996851;28;20041;-80
2023/08/19 03:08:32;;;;;;;8.93;8.13;;;22.50;99.90;;;;;;5014331;28;20029;-78
2023/08/19 03:10:59;;;;;;;9.65;8.85;;;22.50;99.90;;;;;;5012502;28;20041;-83
2023/08/19 03:13:25;;;;;;;9.13;8.30;;;22.60;99.90;;;;;;5010678;28;20033;-76
2023/08/19 03:15:51;;;;;;;10.25;9.25;;;22.60;99.90;;;;;;5009985;28;20039;-78
2023/08/19 03:18:18;;;;;;;8.32;7.63;;;22.60;99.90;;;;;;5016667;28;20033;-83
2023/08/19 03:20:53;;;;;;;9.38;8.57;;;22.60;99.90;;;;;;5001323;28;20033;-80
2023/08/19 03:23:19;;;;;;;8.15;7.45;;;22.60;99.90;;;;;;5017942;28;20032;-84
2023/08/19 03:25:50;;;;;;;9.20;8.40;;;22.60;99.90;;;;;;5001727;28;20408;-82
2023/08/19 03:28:19;;;;;;;9.87;8.97;;;22.60;99.90;;;;;;5029638;28;20045;-78
2023/08/19 03:30:45;;;;;;;9.77;8.88;;;22.60;99.90;;;;;;5012997;28;20049;-74
2023/08/19 03:33:12;;;;;;;7.78;7.07;;;22.60;99.90;;;;;;4980034;28;20040;-79
2023/08/19 03:35:38;;;;;;;10.52;9.63;;;22.60;99.90;;;;;;5000002;28;20045;-81
2023/08/19 03:38:07;;;;;;;9.57;8.68;;;22.60;99.90;;;;;;4982671;28;20053;-78
2023/08/19 03:40:34;;;;;;;9.98;9.05;;;22.60;99.90;;;;;;5014961;28;20499;-82
2023/08/19 03:43:01;;;;;;;9.20;8.35;;;22.70;99.90;;;;;;5017573;28;20041;-77
2023/08/19 03:45:33;;;;;;;9.32;8.50;;;22.70;99.90;;;;;;5003248;28;20392;-84
2023/08/19 03:48:00;;;;;;;8.10;7.40;;;22.70;99.90;;;;;;5013239;28;20040;-82
2023/08/19 03:50:26;;;;;;;8.40;7.60;;;22.70;99.90;;;;;;4974252;28;20057;-81
2023/08/19 03:52:53;;;;;;;10.63;8.93;;;22.70;99.90;;;;;;4994031;28;20504;-81
2023/08/19 03:55:19;;;;;;;9.10;8.18;;;22.70;99.90;;;;;;4977589;28;20037;-80
2023/08/19 03:57:46;;;;;;;8.88;8.18;;;22.70;99.90;;;;;;5012799;28;20036;-80
2023/08/19 04:00:12;;;;;;;9.68;8.48;;;22.70;99.90;;;;;;4975895;28;20041;-82
2023/08/19 04:02:42;;;;;;;8.88;8.18;;;22.70;99.90;;;;;;5013104;28;20033;-83
2023/08/19 04:05:11;;;;;;;8.60;7.85;;;22.70;99.90;;;;;;5000662;28;20032;-81
2023/08/19 04:07:38;;;;;;;8.55;7.75;;;22.70;99.90;;;;;;5019472;28;20417;-76
2023/08/19 04:10:05;;;;;;;8.60;7.88;;;22.70;99.90;;;;;;4994421;28;21346;-83
2023/08/19 04:12:31;;;;;;;8.85;8.05;;;22.70;99.90;;;;;;4992970;28;20048;-79
2023/08/19 04:14:58;;;;;;;9.05;8.25;;;22.70;99.90;;;;;;4995028;28;20021;-77
2023/08/19 04:17:25;;;;;;;7.95;7.30;;;22.70;99.90;;;;;;5009174;28;20037;-80
2023/08/19 04:19:52;;;;;;;8.93;8.13;;;22.70;99.90;;;;;;4977959;28;20041;-82
2023/08/19 04:22:18;;;;;;;9.85;8.95;;;22.70;99.90;;;;;;5024524;28;20022;-76
2023/08/19 04:24:52;;;;;;;8.40;7.70;;;22.70;99.90;;;;;;4979072;28;20025;-82
2023/08/19 04:27:19;;;;;;;10.38;9.32;;;22.60;99.90;;;;;;5018383;28;20035;-80
2023/08/19 04:29:45;;;;;;;10.20;9.20;;;22.60;99.90;;;;;;5003606;28;20025;-80
2023/08/19 04:32:14;;;;;;;8.98;8.18;;;22.60;99.90;;;;;;4995667;28;20049;-77
2023/08/19 04:34:41;;;;;;;8.75;7.97;;;22.70;99.90;;;;;;5008976;28;20416;-76
2023/08/19 04:37:09;;;;;;;7.65;6.80;;;22.70;99.90;;;;;;4980249;28;20033;-79
2023/08/19 04:39:38;;;;;;;8.35;7.53;;;22.70;99.90;;;;;;4971945;28;20064;-78
2023/08/19 04:42:25;;;;;;;7.30;6.70;;;22.70;99.90;;;;;;4999263;28;20048;-79
2023/08/19 04:44:51;;;;;;;7.55;6.85;;;22.70;99.90;;;;;;5012657;28;20037;-84
2023/08/19 04:47:18;;;;;;;8.13;7.32;;;22.70;99.90;;;;;;5001824;28;20039;-82
2023/08/19 04:49:44;;;;;;;7.25;6.55;;;22.70;99.90;;;;;;5015297;28;20040;-77
2023/08/19 04:52:11;;;;;;;7.25;6.65;;;22.70;99.90;;;;;;5000534;28;20526;-82
2023/08/19 04:54:37;;;;;;;6.82;6.22;;;22.70;99.90;;;;;;4996282;28;20048;-83
2023/08/19 04:57:04;;;;;;;8.07;7.32;;;22.70;99.90;;;;;;5009532;28;20041;-80
2023/08/19 04:59:30;;;;;;;11.10;9.32;;;22.70;99.90;;;;;;4988345;28;20024;-75
2023/08/19 05:01:58;;;;;;;6.70;6.03;;;22.70;99.90;;;;;;4992835;28;20040;-83
2023/08/19 05:04:25;;;;;;;7.05;6.38;;;22.70;99.90;;;;;;4998439;28;20021;-81
2023/08/19 05:06:53;;;;;;;7.00;6.13;;;22.80;99.90;;;;;;4994769;28;21658;-79
2023/08/19 05:09:19;;;;;;;6.50;5.38;;;22.80;99.90;;;;;;4997899;28;20040;-80
2023/08/19 05:11:46;;;;;;;6.10;5.53;;;22.80;99.90;;;;;;5004023;28;20832;-84
2023/08/19 05:14:13;;;;;;;7.50;6.78;;;22.80;99.90;;;;;;4996558;28;20036;-76
2023/08/19 05:16:39;;;;;;;6.22;5.63;;;22.80;99.90;;;;;;4995615;28;20523;-79
2023/08/19 05:19:18;;;;;;;6.45;5.85;;;22.80;99.90;;;;;;5010476;28;20041;-85
2023/08/19 05:21:48;;;;;;;6.45;5.93;;;22.80;99.90;;;;;;4992128;28;20039;-82
2023/08/19 05:24:15;;;;;;;5.55;4.82;;;22.80;99.90;;;;;;4977251;28;20030;-79
2023/08/19 05:26:44;;;;;;;4.40;4.05;;;22.90;99.90;;;;;;4994341;28;20490;-82
2023/08/19 05:29:12;;;;;;;5.18;4.68;;;22.90;99.90;;;;;;4981679;28;20037;-82
2023/08/19 05:31:38;;;;;;;5.00;4.60;;;22.90;99.90;;;;;;5002514;28;20032;-80
2023/08/19 05:34:07;;;;;;;4.70;4.30;;;23.00;99.90;;;;;;5015784;28;20033;-80
2023/08/19 05:36:33;;;;;;;4.90;4.28;;;23.00;99.90;;;;;;5009351;28;20711;-79
2023/08/19 05:39:00;;;;;;;5.13;4.63;;;23.10;99.90;;;;;;5005791;28;20032;-83
2023/08/19 05:41:27;;;;;;;5.60;4.95;;;23.20;99.90;;;;;;5008819;28;20048;-78
2023/08/19 05:43:53;;;;;;;6.90;5.53;;;23.20;99.90;;;;;;5007625;28;20038;-80
2023/08/19 05:46:19;;;;;;;5.63;5.13;;;23.20;99.90;;;;;;5007454;28;20025;-86
2023/08/19 05:48:46;;;;;;;5.97;5.40;;;23.20;99.90;;;;;;5010930;28;20399;-81
2023/08/19 05:51:12;;;;;;;5.35;4.85;;;23.20;99.90;;;;;;5013670;28;20037;-76
2023/08/19 05:53:38;;;;;;;5.35;4.85;;;23.20;99.90;;;;;;5016218;28;20507;-79
2023/08/19 05:56:05;;;;;;;7.07;5.00;;;23.20;99.90;;;;;;5000735;28;20047;-76
2023/08/19 05:58:32;;;;;;;4.75;4.35;;;23.20;99.90;;;;;;5012385;28;20503;-81
2023/08/19 06:01:06;;;;;;;5.25;4.57;;;23.20;99.90;;;;;;4993070;28;20500;-81
2023/08/19 06:03:33;;;;;;;4.43;3.83;;;23.20;99.90;;;;;;5003080;28;20483;-78
2023/08/19 06:06:05;;;;;;;5.03;4.57;;;23.20;99.90;;;;;;5008807;28;20605;-81
2023/08/19 06:08:32;;;;;;;4.75;4.35;;;23.20;99.90;;;;;;5010031;28;20032;-80
2023/08/19 06:11:01;;;;;;;5.10;4.43;;;23.20;99.90;;;;;;4974743;28;21812;-75
2023/08/19 06:13:29;;;;;;;5.72;5.20;;;23.30;99.90;;;;;;4976660;28;20484;-76
2023/08/19 06:15:56;;;;;;;5.00;4.53;;;23.30;99.90;;;;;;5013809;28;20768;-84
2023/08/19 06:18:24;;;;;;;6.68;5.00;;;23.30;99.90;;;;;;4999283;28;20029;-81
2023/08/19 06:20:51;;;;;;;4.63;4.13;;;23.40;99.90;;;;;;4993586;28;20056;-84
2023/08/19 06:23:18;;;;;;;5.15;4.75;;;23.40;99.90;;;;;;5009491;28;20538;-75
2023/08/19 06:25:49;;;;;;;5.40;4.63;;;23.50;99.90;;;;;;4972065;28;20052;-82
2023/08/19 06:28:17;;;;;;;5.27;4.57;;;23.60;99.90;;;;;;5007461;28;20407;-83
2023/08/19 06:30:44;;;;;;;6.28;4.93;;;23.60;99.90;;;;;;5008184;28;20045;-77
2023/08/19 06:33:11;;;;;;;7.03;4.47;;;23.70;99.90;;;;;;5009776;28;20036;-80
2023/08/19 06:35:38;;;;;;;5.20;4.70;;;23.70;99.90;;;;;;4993872;28;20048;-83
2023/08/19 06:38:13;;;;;;;5.85;4.38;;;23.80;99.90;;;;;;5016338;28;20488;-77
2023/08/19 06:41:09;;;;;;;4.78;3.80;;;23.90;99.90;;;;;;4979904;28;20029;-79
2023/08/19 06:43:40;;;;;;;6.75;4.68;;;24.00;99.90;;;;;;5014040;28;20048;-77
2023/08/19 06:46:07;;;;;;;5.57;4.63;;;24.00;99.90;;;;;;5009173;28;20037;-80
2023/08/19 06:48:35;;;;;;;6.25;4.43;;;24.10;99.90;;;;;;4973885;28;20044;-77
2023/08/19 06:51:03;;;;;;;5.00;4.45;;;24.00;99.90;;;;;;5010147;28;20033;-81
2023/08/19 06:53:29;;;;;;;5.72;4.20;;;24.10;99.90;;;;;;5010095;28;20025;-82
2023/08/19 06:56:13;;;;;;;6.75;4.63;;;24.10;99.90;;;;;;5014503;28;20032;-81
2023/08/19 06:58:52;;;;;;;4.47;3.47;;;24.20;99.90;;;;;;5012578;28;20068;-82
2023/08/19 07:01:24;;;;;;;4.20;3.88;;;24.20;99.90;;;;;;5004676;28;20025;-82
2023/08/19 07:03:52;;;;;;;5.85;4.03;;;24.30;99.90;;;;;;5018412;28;20044;-84
2023/08/19 07:06:22;;;;;;;4.50;4.10;;;24.30;99.90;;;;;;4988151;28;20025;-81
2023/08/19 07:08:50;;;;;;;6.97;3.97;;;24.40;99.90;;;;;;4999494;28;20036;-76
2023/08/19 07:11:18;;;;;;;4.55;4.10;;;24.50;99.90;;;;;;4992690;28;20044;-75
2023/08/19 07:13:45;;;;;;;5.60;4.57;;;24.60;99.90;;;;;;5010227;28;20040;-78
2023/08/19 07:16:12;;;;;;;6.13;4.10;;;24.70;99.90;;;;;;5016581;28;20041;-80
2023/08/19 07:18:41;;;;;;;5.10;4.13;;;24.70;99.90;;;;;;5016578;28;20025;-80
2023/08/19 07:21:13;;;;;;;4.85;3.58;;;24.80;99.90;;;;;;4982675;28;20044;-81
2023/08/19 07:23:45;;;;;;;5.70;3.80;;;24.90;99.90;;;;;;5006474;28;21211;-83
2023/08/19 07:26:12;;;;;;;5.78;3.75;;;25.00;99.90;;;;;;5017050;28;20049;-83
2023/08/19 07:28:39;;;;;;;5.05;3.95;;;25.00;99.90;;;;;;4999785;28;20442;-80
2023/08/19 07:31:09;;;;;;;5.40;3.70;;;25.10;99.90;;;;;;5000694;28;20052;-82
2023/08/19 07:33:36;;;;;;;4.30;3.25;;;25.20;99.90;;;;;;4984697;28;20036;-93
2023/08/19 07:36:03;;;;;;;4.53;4.10;;;25.30;99.90;;;;;;4990438;28;20036;-82
2023/08/19 07:38:29;;;;;;;4.68;3.28;;;25.40;99.90;;;;;;5015228;28;20037;-83
2023/08/19 07:40:56;;;;;;;7.72;5.05;;;25.40;99.90;;;;;;5014739;28;20028;-90
2023/08/19 07:43:22;;;;;;;8.02;6.93;;;25.40;99.90;;;;;;4997844;28;20388;-76
2023/08/19 07:45:48;;;;;;;7.60;6.82;;;25.50;99.90;;;;;;5021773;28;20040;-80
2023/08/19 07:48:15;;;;;;;6.32;5.70;;;25.50;99.90;;;;;;5039881;28;20033;-87
2023/08/19 07:50:41;;;;;;;5.10;4.57;;;25.40;99.90;;;;;;5018241;28;20037;-85
2023/08/19 07:53:08;;;;;;;4.22;3.80;;;25.40;99.90;;;;;;4996608;28;20053;-84
2023/08/19 07:55:34;;;;;;;4.97;4.30;;;25.40;99.90;;;;;;4999953;28;20041;-84
2023/08/19 07:58:01;;;;;;;4.00;3.58;;;25.40;99.90;;;;;;4990235;28;20032;-89
2023/08/19 08:00:27;;;;;;;4.28;3.30;;;25.50;99.90;;;;;;5013562;28;20033;-90
2023/08/19 08:02:54;;;;;;;11.00;9.68;;;25.80;99.90;;;;;;4978558;28;20040;-85
2023/08/19 08:05:20;;;;;;;5.85;5.15;;;26.20;99.90;;;;;;4980904;28;20033;-81
2023/08/19 08:07:46;;;;;;;6.78;5.78;;;26.60;99.90;;;;;;5021294;28;20403;-78
2023/08/19 08:10:13;;;;;;;4.57;3.63;;;26.80;99.90;;;;;;5018624;28;20029;-82
2023/08/19 08:12:39;;;;;;;3.55;3.20;;;27.00;99.90;;;;;;4996490;28;20040;-80
2023/08/19 08:15:07;;;;;;;3.83;3.13;;;27.00;99.90;;;;;;5002359;28;20037;-87
2023/08/19 08:17:33;;;;;;;3.75;2.72;;;27.00;99.90;;;;;;4994765;28;20412;-83
2023/08/19 08:20:00;;;;;;;7.05;4.78;;;27.10;99.90;;;;;;5011606;28;21250;-82
2023/08/19 08:22:26;;;;;;;6.40;4.50;;;27.10;99.90;;;;;;5028907;28;20044;-84
2023/08/19 08:24:54;;;;;;;6.68;4.50;;;27.10;99.90;;;;;;4984135;28;20028;-84
2023/08/19 08:27:22;;;;;;;4.38;3.10;;;27.20;99.90;;;;;;5019160;28;20061;-90
2023/08/19 08:29:48;;;;;;;3.88;3.33;;;27.10;99.90;;;;;;5021699;28;20052;-83
2023/08/19 08:32:15;;;;;;;3.85;3.45;;;27.30;99.90;;;;;;5017619;28;20716;-76
2023/08/19 08:34:41;;;;;;;6.97;3.95;;;27.40;99.90;;;;;;5013557;28;20044;-84
2023/08/19 08:37:08;;;;;;;5.30;3.22;;;27.60;99.90;;;;;;4998804;28;20045;-88
2023/08/19 08:39:34;;;;;;;5.13;4.05;;;27.70;99.90;;;;;;5012463;28;20433;-77
2023/08/19 08:42:02;;;;;;;5.28;4.00;;;27.80;99.90;;;;;;5000772;28;20033;-80
2023/08/19 08:44:30;;;;;;;4.72;3.97;;;27.90;99.90;;;;;;5014659;28;20041;-81
2023/08/19 08:46:58;;;;;;;6.15;4.30;;;28.00;99.90;;;;;;5016383;28;20044;-78
2023/08/19 08:49:28;;;;;;;6.53;4.75;;;28.20;99.90;;;;;;5045572;28;20476;-77
2023/08/19 08:51:56;;;;;;;6.15;4.97;;;28.30;99.90;;;;;;5024547;28;20036;-83
2023/08/19 08:54:23;;;;;;;6.13;4.25;;;28.40;99.90;;;;;;5017217;28;20052;-83
2023/08/19 08:56:49;;;;;;;7.22;6.53;;;28.50;99.90;;;;;;5014883;28;20599;-89
2023/08/19 08:59:16;;;;;;;7.10;6.40;;;28.60;99.90;;;;;;5012072;28;20028;-90
2023/08/19 09:01:46;;;;;;;7.20;6.45;;;28.60;99.90;;;;;;5016272;28;20037;-83
2023/08/19 09:04:15;;;;;;;6.32;5.00;;;28.60;99.90;;;;;;4994896;28;20083;-80
2023/08/19 09:06:50;;;;;;;6.70;4.95;;;28.60;99.90;;;;;;4995414;28;20033;-87
2023/08/19 09:09:18;;;;;;;6.60;4.55;;;28.50;99.90;;;;;;5008404;28;20591;-82
2023/08/19 09:11:47;;;;;;;5.22;4.00;;;28.40;99.90;;;;;;5006490;28;20060;-82
2023/08/19 09:14:43;;;;;;;6.25;4.00;;;28.30;99.90;;;;;;4998933;28;20080;-85
2023/08/19 09:17:14;;;;;;;4.22;3.65;;;28.30;99.90;;;;;;4994480;28;20065;-79
2023/08/19 09:19:41;;;;;;;3.63;3.33;;;28.20;99.90;;;;;;4998707;28;20044;-74
2023/08/19 09:22:16;;;;;;;4.47;3.85;;;28.20;99.90;;;;;;5006922;28;20384;-84
2023/08/19 09:24:43;;;;;;;4.82;4.10;;;28.30;99.90;;;;;;5011329;28;20040;-76
2023/08/19 09:27:11;;;;;;;3.83;3.45;;;28.30;99.90;;;;;;5010051;28;20372;-75
2023/08/19 09:29:48;;;;;;;5.45;3.35;;;28.30;99.90;;;;;;4988457;28;20041;-82
2023/08/19 09:32:15;;;;;;;5.20;4.70;;;28.20;99.90;;;;;;4984298;28;20040;-83
2023/08/19 09:34:41;;;;;;;6.05;5.30;;;28.10;99.90;;;;;;5017191;28;20058;-79
2023/08/19 09:37:10;;;;;;;6.40;5.78;;;28.00;99.90;;;;;;5018250;28;20043;-84
2023/08/19 09:39:36;;;;;;;5.97;5.28;;;27.90;99.90;;;;;;4979596;28;20033;-86
2023/08/19 09:42:04;;;;;;;5.82;4.90;;;27.70;99.90;;;;;;5012341;28;20041;-78
2023/08/19 09:44:30;;;;;;;6.68;4.80;;;27.50;99.90;;;;;;4979757;28;20578;-77
2023/08/19 09:47:00;;;;;;;4.97;4.25;;;27.20;99.90;;;;;;5015164;28;20562;-77
2023/08/19 09:49:26;;;;;;;5.53;5.05;;;27.00;99.90;;;;;;5015420;28;20036;-85
2023/08/19 09:51:56;;;;;;;5.35;4.85;;;26.90;99.90;;;;;;5009623;28;20025;-82
2023/08/19 09:54:24;;;;;;;6.00;5.45;;;26.90;99.90;;;;;;5018473;28;20377;-81
2023/08/19 09:56:58;;;;;;;6.00;5.43;;;26.90;99.90;;;;;;5015122;28;20405;-81
2023/08/19 09:59:26;;;;;;;5.22;4.82;;;27.10;99.90;;;;;;5015890;28;20039;-86
2023/08/19 10:01:56;;;;;;;7.70;6.38;;;27.30;99.90;;;;;;4978270;28;20358;-82
2023/08/19 10:04:22;;;;;;;6.53;5.50;;;27.50;99.90;;;;;;4979761;28;20029;-85
2023/08/19 10:06:52;;;;;;;7.90;6.18;;;27.70;99.90;;;;;;4993802;28;20033;-79
2023/08/19 10:09:26;;;;;;;8.52;7.72;;;28.00;99.90;;;;;;4996855;28;20048;-83
2023/08/19 10:11:56;;;;;;;11.82;10.57;;;28.30;99.90;;;;;;5015388;28;20044;-85
2023/08/19 10:14:31;;;;;;;8.27;7.47;;;28.60;99.90;;;;;;5017284;28;20392;-85
2023/08/19 10:17:04;;;;;;;9.63;7.97;;;28.90;99.90;;;;;;5022820;28;20029;-84
2023/08/19 10:19:47;;;;;;;7.70;6.95;;;29.20;99.90;;;;;;5004585;28;20431;-82
2023/08/19 10:22:15;;;;;;;7.88;6.97;;;29.50;99.90;;;;;;4993284;28;20981;-77
2023/08/19 10:24:43;;;;;;;8.75;7.95;;;29.90;99.90;;;;;;4988256;28;20044;-85
2023/08/19 10:27:20;;;;;;;9.43;8.52;;;30.10;99.90;;;;;;5012294;28;20025;-80
2023/08/19 10:29:55;;;;;;;9.65;7.47;;;30.30;99.90;;;;;;4996368;28;20704;-91
2023/08/19 10:32:32;;;;;;;9.23;7.53;;;30.40;99.90;;;;;;5018263;28;20029;-92
2023/08/19 10:35:09;;;;;;;7.75;6.95;;;30.50;99.90;;;;;;5011157;28;20045;-87
2023/08/19 10:37:43;;;;;;;7.80;7.10;;;30.80;99.90;;;;;;4993332;28;20052;-86
2023/08/19 10:40:15;;;;;;;7.07;6.32;;;31.20;99.90;;;;;;5023088;28;20113;-84
2023/08/19 10:42:41;;;;;;;;;;;31.50;99.90;;;;;;5001720;28;20049;-78
2023/08/19 10:45:16;;;;;;;8.30;6.90;;;31.80;99.90;;;;;;5015347;28;19926;-81
2023/08/19 10:47:43;;;;;;;8.27;7.22;;;32.20;99.90;;;;;;5015763;28;20044;-79
2023/08/19 10:50:11;;;;;;;10.23;7.63;;;32.60;99.90;;;;;;5018180;28;20037;-84
2023/08/19 10:52:58;;;;;;;10.38;7.75;;;32.80;99.90;;;;;;5013287;28;20036;-75
2023/08/19 10:55:24;;;;;;;8.90;8.07;;;33.00;99.90;;;;;;5014254;28;20382;-79
2023/08/19 10:57:51;;;;;;;8.32;7.53;;;33.30;99.90;;;;;;5015855;28;21018;-82
2023/08/19 11:00:30;;;;;;;8.52;7.63;;;33.40;99.90;;;;;;5008059;28;20384;-85
2023/08/19 11:02:57;;;;;;;7.22;6.50;;;33.50;99.90;;;;;;5009715;28;20060;-82
2023/08/19 11:05:25;;;;;;;9.50;8.23;;;33.70;99.90;;;;;;5018301;28;20550;-83
2023/08/19 11:07:54;;;;;;;7.70;7.00;;;34.00;99.90;;;;;;4999342;28;20044;-84
2023/08/19 11:10:21;;;;;;;8.25;7.45;;;33.90;99.90;;;;;;5014963;28;20032;-77
2023/08/19 11:12:49;;;;;;;11.68;9.55;;;33.70;99.90;;;;;;4998701;28;20484;-80
2023/08/19 11:15:24;;;;;;;9.48;8.48;;;33.70;99.90;;;;;;5016364;28;20046;-84
2023/08/19 11:17:51;;;;;;;8.35;7.45;;;33.60;99.90;;;;;;4999806;28;20040;-82
2023/08/19 11:20:17;;;;;;;7.68;6.95;;;33.30;99.90;;;;;;5017954;28;20022;-82
2023/08/19 11:22:45;;;;;;;7.65;7.03;;;33.00;99.90;;;;;;5016017;28;20108;-85
2023/08/19 11:25:12;;;;;;;7.05;6.35;;;32.80;99.90;;;;;;4995838;28;20511;-82
2023/08/19 11:27:39;;;;;;;10.15;9.23;;;32.60;99.90;;;;;;5015960;28;20399;-85
2023/08/19 11:30:08;;;;;;;9.02;8.30;;;32.20;99.90;;;;;;5002116;28;20550;-81
2023/08/19 11:32:35;;;;;;;12.30;11.23;;;31.90;99.90;;;;;;5003513;28;20044;-84
2023/08/19 11:35:02;;;;;;;11.57;10.48;;;31.60;99.90;;;;;;5018819;28;20038;-76
2023/08/19 11:37:29;;;;;;;12.13;11.13;;;31.20;99.90;;;;;;5000995;28;20738;-76
2023/08/19 11:39:55;;;;;;;11.88;10.88;;;30.90;99.90;;;;;;5015006;28;20037;-81
2023/08/19 11:42:22;;;;;;;11.10;10.07;;;30.60;99.90;;;;;;5013391;28;20038;-86
2023/08/19 11:44:48;;;;;;;11.60;10.45;;;30.50;99.90;;;;;;5013010;28;20033;-83
2023/08/19 11:47:15;;;;;;;11.13;10.13;;;30.30;99.90;;;;;;4990778;28;20025;-86
2023/08/19 11:49:45;;;;;;;13.30;11.90;;;30.10;99.90;;;;;;5012152;28;20037;-80
2023/08/19 11:52:19;;;;;;;13.45;12.02;;;30.00;99.90;;;;;;5017824;28;20873;-84
2023/08/19 11:55:03;;;;;;;10.55;9.52;;;29.80;99.90;;;;;;5019936;28;20033;-84
2023/08/19 11:57:37;;;;;;;10.02;9.15;;;29.80;99.90;;;;;;5020837;28;20032;-94
2023/08/19 12:00:08;;;;;;;9.50;8.70;;;29.80;99.90;;;;;;4995724;28;20484;-81
2023/08/19 12:02:40;;;;;;;9.90;8.90;;;29.70;99.90;;;;;;5013992;28;20030;-80
2023/08/19 12:05:08;;;;;;;9.65;8.75;;;29.70;99.90;;;;;;4996129;28;20416;-80
2023/08/19 12:07:35;;;;;;;9.50;8.65;;;29.60;99.90;;;;;;5014210;28;20038;-79
2023/08/19 12:10:02;;;;;;;9.25;8.40;;;29.50;99.90;;;;;;5011985;28;20033;-79
2023/08/19 12:12:28;;;;;;;10.88;8.82;;;29.30;99.90;;;;;;4998365;28;20352;-89
2023/08/19 12:14:55;;;;;;;9.20;7.65;;;29.10;99.90;;;;;;5002445;28;20033;-78
2023/08/19 12:17:21;;;;;;;6.40;5.82;;;29.00;99.90;;;;;;5006614;28;20482;-85
2023/08/19 12:19:48;;;;;;;5.95;5.45;;;28.80;99.90;;;;;;5019035;28;20041;-76
2023/08/19 12:22:14;;;;;;;8.93;7.63;;;28.60;99.90;;;;;;5013194;28;20039;-84
2023/08/19 12:24:41;;;;;;;8.55;7.20;;;28.40;99.90;;;;;;5015649;28;20394;-90
2023/08/19 12:27:08;;;;;;;8.30;7.47;;;28.40;99.90;;;;;;5011897;28;20496;-83
2023/08/19 12:29:35;;;;;;;7.85;5.82;;;28.30;99.90;;;;;;4997898;28;20587;-79
2023/08/19 12:32:02;;;;;;;7.03;5.90;;;28.30;99.90;;;;;;4992621;28;20041;-85
2023/08/19 12:34:29;;;;;;;8.60;7.45;;;28.20;99.90;;;;;;5012908;28;20052;-74
2023/08/19 12:36:55;;;;;;;8.07;7.22;;;28.20;99.90;;;;;;5000889;28;20037;-74
2023/08/19 12:39:22;;;;;;;8.23;7.43;;;28.10;99.90;;;;;;5020045;28;20040;-90
2023/08/19 12:41:48;;;;;;;6.28;5.68;;;28.00;99.90;;;;;;4988674;28;20045;-89
2023/08/19 12:44:15;;;;;;;6.78;6.18;;;27.90;99.90;;;;;;5012037;28;20048;-83
2023/08/19 12:46:44;;;;;;;7.25;6.25;;;27.90;99.90;;;;;;5014061;28;20499;-80
2023/08/19 12:49:11;;;;;;;6.28;5.72;;;27.90;99.90;;;;;;5013219;28;20044;-79
2023/08/19 12:51:38;;;;;;;6.18;5.68;;;27.90;99.90;;;;;;5012093;28;20044;-85